createdAt,value
2019-01-15T00:01:44.404Z,26.50
2019-01-15T00:04:14.444Z,26.60
2019-01-15T00:06:44.384Z,26.70
2019-01-15T00:09:14.418Z,26.90
2019-01-15T00:11:44.557Z,26.90
2019-01-15T00:14:14.732Z,26.80
2019-01-15T00:16:44.713Z,26.80
2019-01-15T00:19:14.720Z,27.00
2019-01-15T00:21:44.842Z,27.10
2019-01-15T00:24:14.964Z,27.20
2019-01-15T00:26:45.123Z,27.20
2019-01-15T00:29:15.140Z,27.20
2019-01-15T00:31:45.190Z,27.20
2019-01-15T00:34:15.339Z,27.20
2019-01-15T00:36:45.344Z,27.10
2019-01-15T00:39:15.413Z,27.10
2019-01-15T00:41:46.658Z,27.10
2019-01-15T00:44:16.736Z,27.00
2019-01-15T00:46:46.893Z,26.90
2019-01-15T00:49:16.941Z,26.70
2019-01-15T00:51:46.993Z,26.80
2019-01-15T00:54:16.944Z,26.90
2019-01-15T00:56:47.129Z,26.90
2019-01-15T00:59:17.078Z,27.10
2019-01-15T01:01:47.355Z,27.20
2019-01-15T01:04:17.637Z,27.20
2019-01-15T01:06:47.798Z,27.30
2019-01-15T01:09:17.930Z,27.30
2019-01-15T01:11:48.168Z,27.40
2019-01-15T01:14:18.305Z,27.30
2019-01-15T01:16:48.384Z,27.10
2019-01-15T01:19:18.520Z,27.10
2019-01-15T01:21:48.576Z,27.10
2019-01-15T01:24:18.751Z,26.90
2019-01-15T01:26:48.773Z,26.90
2019-01-15T01:29:18.853Z,26.90
2019-01-15T01:31:48.924Z,26.90
2019-01-15T01:34:19.038Z,26.90
2019-01-15T01:36:48.965Z,27.00
2019-01-15T01:39:18.981Z,27.00
2019-01-15T01:41:49.105Z,27.10
2019-01-15T01:44:19.155Z,27.10
2019-01-15T01:46:49.251Z,27.10
2019-01-15T01:49:19.433Z,26.90
2019-01-15T01:51:49.495Z,26.80
2019-01-15T01:54:19.535Z,26.80
2019-01-15T01:56:49.642Z,26.60
2019-01-15T01:59:19.692Z,26.60
2019-01-15T02:01:49.502Z,26.70
2019-01-15T02:04:19.398Z,26.80
2019-01-15T02:06:49.249Z,26.90
2019-01-15T02:09:19.150Z,26.90
2019-01-15T02:11:49.028Z,27.10
2019-01-15T02:14:18.988Z,27.10
2019-01-15T02:16:48.833Z,27.10
2019-01-15T02:19:18.810Z,27.20
2019-01-15T02:21:48.629Z,27.20
2019-01-15T02:24:18.750Z,27.20
2019-01-15T02:26:48.617Z,27.30
2019-01-15T02:29:18.449Z,27.30
2019-01-15T02:31:48.274Z,27.30
2019-01-15T02:34:18.198Z,27.30
2019-01-15T02:36:48.012Z,27.30
2019-01-15T02:39:17.831Z,27.30
2019-01-15T02:41:47.793Z,27.30
2019-01-15T02:44:17.689Z,27.30
2019-01-15T02:46:47.614Z,27.10
2019-01-15T02:49:17.562Z,26.40
2019-01-15T02:51:47.348Z,26.20
2019-01-15T02:54:17.167Z,26.50
2019-01-15T02:56:47.062Z,26.60
2019-01-15T02:59:16.877Z,26.60
2019-01-15T03:01:46.914Z,26.60
2019-01-15T03:04:16.810Z,26.50
2019-01-15T03:06:46.610Z,26.30
2019-01-15T03:09:16.446Z,26.50
2019-01-15T03:11:46.420Z,26.60
2019-01-15T03:14:16.365Z,26.50
2019-01-15T03:16:46.193Z,26.50
2019-01-15T03:19:16.076Z,26.30
2019-01-15T03:21:45.935Z,26.20
2019-01-15T03:24:15.700Z,26.00
2019-01-15T03:26:45.561Z,25.80
2019-01-15T03:29:15.397Z,25.70
2019-01-15T03:31:45.254Z,25.60
2019-01-15T03:34:15.207Z,25.60
2019-01-15T03:36:44.989Z,25.80
2019-01-15T03:39:14.889Z,26.00
2019-01-15T03:41:44.898Z,26.10
2019-01-15T03:44:14.677Z,26.10
2019-01-15T03:46:44.526Z,26.20
2019-01-15T03:49:14.411Z,26.20
2019-01-15T03:51:44.264Z,26.40
2019-01-15T03:54:14.154Z,26.30
2019-01-15T03:56:44.076Z,26.40
2019-01-15T03:59:13.903Z,26.40
2019-01-15T04:01:44.058Z,26.40
2019-01-15T04:04:14.296Z,26.50
2019-01-15T04:06:44.452Z,26.50
2019-01-15T04:09:14.620Z,26.50
2019-01-15T04:11:44.692Z,26.50
2019-01-15T04:14:14.741Z,27.00
2019-01-15T04:16:44.700Z,26.50
2019-01-15T04:19:14.834Z,26.60
2019-01-15T04:21:44.855Z,26.70
2019-01-15T04:24:15.062Z,26.70
2019-01-15T04:26:45.191Z,27.20
2019-01-15T04:29:15.213Z,26.70
2019-01-15T04:31:45.262Z,26.70
2019-01-15T04:34:15.381Z,26.50
2019-01-15T04:36:45.421Z,26.50
2019-01-15T04:39:15.503Z,26.50
2019-01-15T04:41:45.540Z,26.50
2019-01-15T04:44:15.484Z,26.70
2019-01-15T04:46:45.398Z,26.60
2019-01-15T04:49:15.429Z,26.60
2019-01-15T04:51:45.556Z,26.60
2019-01-15T04:56:43.196Z,26.60
2019-01-15T04:59:13.221Z,26.60
2019-01-15T05:01:43.267Z,26.60
2019-01-15T05:04:13.312Z,26.60
2019-01-15T05:06:43.391Z,26.60
2019-01-15T05:09:13.722Z,26.60
2019-01-15T05:11:43.983Z,26.50
2019-01-15T05:14:14.117Z,26.50
2019-01-15T05:16:44.189Z,26.50
2019-01-15T05:19:14.221Z,26.50
2019-01-15T05:21:44.492Z,26.50
2019-01-15T05:24:14.518Z,26.50
2019-01-15T05:26:44.685Z,26.30
2019-01-15T05:29:14.776Z,26.30
2019-01-15T05:31:44.841Z,26.40
2019-01-15T05:34:14.898Z,26.20
2019-01-15T05:36:44.924Z,26.20
2019-01-15T05:39:14.986Z,26.20
2019-01-15T05:41:45.091Z,26.10
2019-01-15T05:44:15.336Z,26.00
2019-01-15T05:46:45.427Z,26.10
2019-01-15T05:49:15.526Z,26.00
2019-01-15T05:51:46.083Z,25.90
2019-01-15T05:54:16.250Z,25.70
2019-01-15T05:56:46.405Z,25.60
2019-01-15T05:59:16.498Z,25.60
2019-01-15T06:01:46.527Z,25.70
2019-01-15T06:04:17.665Z,25.60
2019-01-15T06:06:47.609Z,25.60
2019-01-15T06:09:17.700Z,25.70
2019-01-15T06:11:47.842Z,25.80
2019-01-15T06:14:18.829Z,25.80
2019-01-15T06:16:48.793Z,25.80
2019-01-15T06:19:18.892Z,25.80
2019-01-15T06:21:48.970Z,25.70
2019-01-15T06:24:19.166Z,25.50
2019-01-15T06:26:49.313Z,25.60
2019-01-15T06:29:19.600Z,25.50
2019-01-15T06:31:49.673Z,25.30
2019-01-15T06:34:19.836Z,25.30
2019-01-15T06:36:49.880Z,25.30
2019-01-15T06:39:19.828Z,25.40
2019-01-15T06:41:49.935Z,25.10
2019-01-15T06:44:19.903Z,24.90
2019-01-15T06:46:49.893Z,24.90
2019-01-15T06:49:20.069Z,24.90
2019-01-15T06:51:50.181Z,24.90
2019-01-15T06:54:20.240Z,24.70
2019-01-15T06:56:50.425Z,24.60
2019-01-15T06:59:20.466Z,24.70
2019-01-15T07:01:50.526Z,24.70
2019-01-15T07:04:20.550Z,24.70
2019-01-15T07:06:50.586Z,24.60
2019-01-15T07:09:20.769Z,24.50
2019-01-15T07:11:50.815Z,24.30
2019-01-15T07:14:20.878Z,24.30
2019-01-15T07:16:51.001Z,24.20
2019-01-15T07:19:21.126Z,24.30
2019-01-15T07:21:51.481Z,24.10
2019-01-15T07:24:21.549Z,24.30
2019-01-15T07:26:51.789Z,24.70
2019-01-15T07:29:21.956Z,25.00
2019-01-15T07:31:52.024Z,25.10
2019-01-15T07:34:22.212Z,25.30
2019-01-15T07:36:52.259Z,25.40
2019-01-15T07:39:22.240Z,25.50
2019-01-15T07:41:52.524Z,25.50
2019-01-15T07:44:22.453Z,25.60
2019-01-15T07:46:52.587Z,25.60
2019-01-15T07:49:22.723Z,25.60
2019-01-15T07:51:52.781Z,25.60
2019-01-15T07:54:22.912Z,25.70
2019-01-15T07:56:53.121Z,25.80
2019-01-15T07:59:23.200Z,25.90
2019-01-15T08:01:53.261Z,25.90
2019-01-15T08:04:23.449Z,25.90
2019-01-15T08:06:53.442Z,25.90
2019-01-15T08:09:23.574Z,25.90
2019-01-15T08:11:53.698Z,25.90
2019-01-15T08:14:23.987Z,26.00
2019-01-15T08:16:54.012Z,26.00
2019-01-15T08:19:24.278Z,25.90
2019-01-15T08:21:55.031Z,26.00
2019-01-15T08:24:25.064Z,26.00
2019-01-15T08:26:55.224Z,26.00
2019-01-15T08:29:25.253Z,25.90
2019-01-15T08:31:55.202Z,26.00
2019-01-15T08:34:25.419Z,25.90
2019-01-15T08:36:55.587Z,25.90
2019-01-15T08:39:25.598Z,25.90
2019-01-15T08:41:56.128Z,26.00
2019-01-15T08:44:26.647Z,26.00
2019-01-15T08:46:56.601Z,26.00
2019-01-15T08:49:26.740Z,26.00
2019-01-15T08:51:57.071Z,26.10
2019-01-15T08:54:27.224Z,26.20
2019-01-15T08:56:57.487Z,26.10
2019-01-15T08:59:27.516Z,26.20
2019-01-15T09:01:57.639Z,26.20
2019-01-15T09:04:27.757Z,26.20
2019-01-15T09:06:57.838Z,26.30
2019-01-15T09:09:27.752Z,26.40
2019-01-15T09:11:58.088Z,26.50
2019-01-15T09:14:28.169Z,26.50
2019-01-15T09:16:58.237Z,26.50
2019-01-15T09:19:28.671Z,26.60
2019-01-15T09:21:58.890Z,26.60
2019-01-15T09:24:28.957Z,26.60
2019-01-15T09:26:59.077Z,26.60
2019-01-15T09:29:29.042Z,26.80
2019-01-15T09:31:59.105Z,26.70
2019-01-15T09:34:29.249Z,26.80
2019-01-15T09:36:59.277Z,26.80
2019-01-15T09:39:29.352Z,26.90
2019-01-15T09:41:59.599Z,27.00
2019-01-15T09:44:34.026Z,27.00
2019-01-15T09:47:01.581Z,26.90
2019-01-15T09:49:31.828Z,26.80
2019-01-15T09:52:01.797Z,26.80
2019-01-15T09:54:32.022Z,26.90
2019-01-15T09:57:02.105Z,26.90
2019-01-15T09:59:32.170Z,27.00
2019-01-15T10:02:02.383Z,27.00
2019-01-15T10:04:32.540Z,27.10
2019-01-15T10:07:02.621Z,27.40
2019-01-15T10:09:32.636Z,27.30
2019-01-15T10:12:02.798Z,27.40
2019-01-15T10:14:32.896Z,27.40
2019-01-15T10:17:03.101Z,27.50
2019-01-15T10:19:33.310Z,27.40
2019-01-15T10:22:03.554Z,27.50
2019-01-15T10:24:33.706Z,27.50
2019-01-15T10:27:03.909Z,27.50
2019-01-15T10:29:34.185Z,27.50
2019-01-15T10:32:54.190Z,27.50
2019-01-15T10:35:35.550Z,27.60
2019-01-15T10:38:05.801Z,27.60
2019-01-15T10:40:35.735Z,27.80
2019-01-15T10:43:05.805Z,27.80
2019-01-15T10:45:35.957Z,27.80
2019-01-15T10:48:05.945Z,27.80
2019-01-15T10:50:35.995Z,27.70
2019-01-15T10:53:06.123Z,27.80
2019-01-15T10:55:36.296Z,27.80
2019-01-15T10:58:06.510Z,27.90
2019-01-15T11:00:36.642Z,27.80
2019-01-15T11:03:06.779Z,27.70
2019-01-15T11:05:36.966Z,27.70
2019-01-15T11:08:07.274Z,27.80
2019-01-15T11:10:37.311Z,27.80
2019-01-15T11:13:07.360Z,27.90
2019-01-15T11:15:43.161Z,28.00
2019-01-15T11:18:09.338Z,27.90
2019-01-15T11:20:39.521Z,27.90
2019-01-15T11:23:09.764Z,27.80
2019-01-15T11:25:39.808Z,27.80
2019-01-15T11:28:09.978Z,27.80
2019-01-15T11:30:40.437Z,27.80
2019-01-15T11:33:10.465Z,27.90
2019-01-15T11:35:40.623Z,27.80
2019-01-15T11:38:10.774Z,27.60
2019-01-15T11:40:40.812Z,27.50
2019-01-15T11:43:10.862Z,27.60
2019-01-15T11:45:41.070Z,27.50
2019-01-15T11:48:11.187Z,27.50
2019-01-15T11:50:41.479Z,27.30
2019-01-15T11:53:11.759Z,27.10
2019-01-15T11:55:41.931Z,26.80
2019-01-15T11:58:12.151Z,26.90
2019-01-15T12:00:46.703Z,26.80
2019-01-15T12:03:35.593Z,26.90
2019-01-15T12:06:23.255Z,27.10
2019-01-15T12:09:11.004Z,27.10
2019-01-15T12:11:55.659Z,27.20
2019-01-15T12:14:50.651Z,27.40
2019-01-15T12:17:38.589Z,27.50
2019-01-15T12:20:25.897Z,27.40
2019-01-15T12:23:14.877Z,27.40
2019-01-15T12:26:11.804Z,27.50
2019-01-15T12:28:59.604Z,27.60
2019-01-15T12:31:47.333Z,27.70
2019-01-15T12:34:34.723Z,27.70
2019-01-15T12:37:35.649Z,27.80
2019-01-15T12:40:31.454Z,27.90
2019-01-15T12:43:20.137Z,28.00
2019-01-15T12:46:09.232Z,28.10
2019-01-15T12:48:56.797Z,28.10
2019-01-15T12:51:57.838Z,28.20
2019-01-15T12:54:46.589Z,28.20
2019-01-15T12:57:35.589Z,28.30
2019-01-15T13:00:39.206Z,28.30
2019-01-15T13:03:26.721Z,28.50
2019-01-15T13:06:21.328Z,28.40
2019-01-15T13:09:08.967Z,28.50
2019-01-15T13:11:57.986Z,28.50
2019-01-15T13:14:45.494Z,29.10
2019-01-15T13:17:49.388Z,28.60
2019-01-15T13:20:44.531Z,28.70
2019-01-15T13:23:39.631Z,28.90
2019-01-15T13:26:31.812Z,28.70
2019-01-15T13:29:26.737Z,28.50
2019-01-15T13:32:08.318Z,28.70
2019-01-15T13:34:57.145Z,28.50
2019-01-15T13:37:46.111Z,28.60
2019-01-15T13:40:44.520Z,28.50
2019-01-15T13:43:36.171Z,28.60
2019-01-15T13:46:37.485Z,28.50
2019-01-15T13:49:25.545Z,28.60
2019-01-15T13:52:13.059Z,28.70
2019-01-15T13:55:00.671Z,28.70
2019-01-15T13:57:48.387Z,28.70
2019-01-15T14:00:47.713Z,28.80
2019-01-15T14:03:42.302Z,28.70
2019-01-15T14:06:29.842Z,28.70
2019-01-15T14:09:17.163Z,28.90
2019-01-15T14:12:12.208Z,29.00
2019-01-15T14:15:04.076Z,29.00
2019-01-15T14:17:59.197Z,29.00
2019-01-15T14:20:46.743Z,29.00
2019-01-15T14:23:34.366Z,29.00
2019-01-15T14:26:23.424Z,29.00
2019-01-15T14:29:07.670Z,28.70
2019-01-15T14:31:53.647Z,28.80
2019-01-15T14:34:42.664Z,29.00
2019-01-15T14:37:30.287Z,28.90
2019-01-15T14:40:16.595Z,28.90
2019-01-15T14:43:17.774Z,28.80
2019-01-15T14:46:16.621Z,28.80
2019-01-15T14:49:04.625Z,28.90
2019-01-15T14:51:59.794Z,29.00
2019-01-15T14:55:07.004Z,28.90
2019-01-15T14:57:55.073Z,29.00
2019-01-15T15:00:51.716Z,29.10
2019-01-15T15:03:52.602Z,29.10
2019-01-15T15:06:40.139Z,29.10
2019-01-15T15:09:28.203Z,29.10
2019-01-15T15:12:14.707Z,29.00
2019-01-15T15:15:09.793Z,28.90
2019-01-15T15:18:10.124Z,29.00
2019-01-15T15:20:58.055Z,29.00
2019-01-15T15:23:45.618Z,29.10
2019-01-15T15:26:40.685Z,29.10
2019-01-15T15:29:32.381Z,29.20
2019-01-15T15:32:24.420Z,29.20
2019-01-15T15:35:31.553Z,29.30
2019-01-15T15:38:19.385Z,29.40
2019-01-15T15:41:08.461Z,29.20
2019-01-15T15:44:00.137Z,29.20
2019-01-15T15:47:04.390Z,29.20
2019-01-15T15:49:53.308Z,29.20
2019-01-15T15:52:47.130Z,29.30
2019-01-15T15:55:45.002Z,29.30
2019-01-15T15:58:39.829Z,29.30
2019-01-15T16:01:31.192Z,29.30
2019-01-15T16:04:35.013Z,29.40
2019-01-15T16:07:38.761Z,29.40
2019-01-15T16:10:30.076Z,29.40
2019-01-15T16:13:18.996Z,30.00
2019-01-15T16:16:07.922Z,29.60
2019-01-15T16:18:56.921Z,29.60
2019-01-15T16:21:49.110Z,29.60
2019-01-15T16:24:37.221Z,29.60
2019-01-15T16:27:32.108Z,29.60
2019-01-15T16:30:30.387Z,29.60
2019-01-15T16:33:21.991Z,29.60
2019-01-15T16:36:16.950Z,29.70
2019-01-15T16:39:17.876Z,29.80
2019-01-15T16:42:06.985Z,29.80
2019-01-15T16:44:56.149Z,29.80
2019-01-15T16:47:53.998Z,29.90
2019-01-15T16:53:30.917Z,29.90
2019-01-15T16:56:19.672Z,29.80
2019-01-15T16:59:07.148Z,29.90
2019-01-15T17:01:58.393Z,30.00
2019-01-15T17:04:57.895Z,30.00
2019-01-15T17:07:49.627Z,29.90
2019-01-15T17:10:47.555Z,30.00
2019-01-15T17:13:42.536Z,30.00
2019-01-15T17:16:37.263Z,30.00
2019-01-15T17:19:36.243Z,30.00
2019-01-15T17:22:22.075Z,30.20
2019-01-15T17:25:13.622Z,30.00
2019-01-15T17:28:05.485Z,30.00
2019-01-15T17:30:53.005Z,29.90
2019-01-15T17:33:40.680Z,30.50
2019-01-15T17:36:42.120Z,29.90
2019-01-15T17:39:29.641Z,29.80
2019-01-15T17:42:17.374Z,29.80
2019-01-15T17:45:12.376Z,30.00
2019-01-15T17:48:19.361Z,29.90
2019-01-15T17:51:15.873Z,29.90
2019-01-15T17:54:02.740Z,29.90
2019-01-15T17:57:00.585Z,30.00
2019-01-15T18:00:07.645Z,30.00
2019-01-15T18:02:59.408Z,30.00
2019-01-15T18:05:51.350Z,30.10
2019-01-15T18:08:40.372Z,30.10
2019-01-15T18:11:28.128Z,30.10
2019-01-15T18:14:27.242Z,30.10
2019-01-15T18:17:22.444Z,30.10
2019-01-15T18:20:20.494Z,30.10
2019-01-15T18:23:18.656Z,30.10
2019-01-15T18:26:07.642Z,30.10
2019-01-15T18:28:55.197Z,30.20
2019-01-15T18:31:53.278Z,30.10
2019-01-15T18:34:57.217Z,30.10
2019-01-15T18:37:45.077Z,30.10
2019-01-15T18:40:32.761Z,30.20
2019-01-15T18:43:20.205Z,30.10
2019-01-15T18:46:09.112Z,30.00
2019-01-15T18:48:56.786Z,30.00
2019-01-15T18:51:44.436Z,30.00
2019-01-15T18:54:39.430Z,30.10
2019-01-15T18:57:40.236Z,30.00
2019-01-15T19:00:39.420Z,30.00
2019-01-15T19:03:40.329Z,29.90
2019-01-15T19:06:41.450Z,30.50
2019-01-15T19:09:31.854Z,30.00
2019-01-15T19:12:39.862Z,30.00
2019-01-15T19:15:29.437Z,30.00
2019-01-15T19:18:21.310Z,29.90
2019-01-15T19:21:08.630Z,29.90
2019-01-15T19:24:03.562Z,29.80
2019-01-15T19:26:55.512Z,29.80
2019-01-15T19:29:42.740Z,29.80
2019-01-15T19:32:37.854Z,29.70
2019-01-15T19:35:27.896Z,29.70
2019-01-15T19:38:15.164Z,29.70
2019-01-15T19:41:13.002Z,29.60
2019-01-15T19:44:00.697Z,29.40
2019-01-15T19:46:52.244Z,29.30
2019-01-15T19:49:53.335Z,28.80
2019-01-15T19:52:41.236Z,29.20
2019-01-15T19:55:33.789Z,29.30
2019-01-15T19:58:40.997Z,29.40
2019-01-15T20:01:28.620Z,29.40
2019-01-15T20:04:32.729Z,29.50
2019-01-15T20:07:22.729Z,29.50
2019-01-15T20:10:04.790Z,29.50
2019-01-15T20:12:52.886Z,29.50
2019-01-15T20:15:45.053Z,29.60
2019-01-15T20:18:45.752Z,29.50
2019-01-15T20:21:43.906Z,29.50
2019-01-15T20:24:39.161Z,29.50
2019-01-15T20:27:30.982Z,29.50
2019-01-15T20:30:18.600Z,29.50
2019-01-15T20:33:18.380Z,29.60
2019-01-15T20:36:20.298Z,29.50
2019-01-15T20:39:16.339Z,29.50
2019-01-15T20:42:15.305Z,29.60
2019-01-15T20:45:13.667Z,29.60
2019-01-15T20:48:18.490Z,29.60
2019-01-15T20:51:20.796Z,29.60
2019-01-15T20:54:07.397Z,29.60
2019-01-15T20:57:09.857Z,29.70
2019-01-15T20:59:58.729Z,29.60
2019-01-15T21:02:45.168Z,29.60
2019-01-15T21:05:33.648Z,29.60
2019-01-15T21:08:23.645Z,29.50
2019-01-15T21:11:22.733Z,29.50
2019-01-15T21:14:11.617Z,29.50
2019-01-15T21:17:07.017Z,29.40
2019-01-15T21:19:56.536Z,29.50
2019-01-15T21:22:45.820Z,29.40
2019-01-15T21:25:34.069Z,29.40
2019-01-15T21:28:22.297Z,29.40
2019-01-15T21:31:17.362Z,29.30
2019-01-15T21:34:05.314Z,29.40
2019-01-15T21:36:54.245Z,29.40
2019-01-15T21:39:42.696Z,29.30
2019-01-15T21:42:34.546Z,29.30
2019-01-15T21:45:22.414Z,29.10
2019-01-15T21:48:04.263Z,29.30
2019-01-15T21:50:53.229Z,29.30
2019-01-15T21:53:48.052Z,29.40
2019-01-15T21:56:35.448Z,29.30
2019-01-15T21:59:36.565Z,29.30
2019-01-15T22:02:16.390Z,29.30
2019-01-15T22:05:20.978Z,29.20
2019-01-15T22:08:15.599Z,29.30
2019-01-15T22:11:16.513Z,29.20
2019-01-15T22:14:14.542Z,29.20
2019-01-15T22:17:21.693Z,29.20
2019-01-15T22:20:13.368Z,29.20
2019-01-15T22:23:00.841Z,29.20
2019-01-15T22:25:48.452Z,29.20
2019-01-15T22:28:37.489Z,29.20
2019-01-15T22:31:26.337Z,29.10
2019-01-15T22:34:23.242Z,29.00
2019-01-15T22:37:24.160Z,28.80
2019-01-15T22:40:15.812Z,28.70
2019-01-15T22:43:16.478Z,28.70
2019-01-15T22:46:06.262Z,28.70
2019-01-15T22:48:49.765Z,28.60
2019-01-15T22:51:50.429Z,28.70
2019-01-15T22:54:49.080Z,28.50
2019-01-15T22:57:47.277Z,28.60
2019-01-15T23:00:46.120Z,28.60
2019-01-15T23:03:36.225Z,28.70
2019-01-15T23:06:24.153Z,28.70
2019-01-15T23:09:15.960Z,28.70
2019-01-15T23:12:16.820Z,28.70
2019-01-15T23:14:55.901Z,28.80
2019-01-15T23:17:36.363Z,28.70
2019-01-15T23:20:26.474Z,28.90
2019-01-15T23:23:11.816Z,28.10
2019-01-15T23:26:09.787Z,28.50
2019-01-15T23:28:52.672Z,28.50
2019-01-15T23:31:44.971Z,28.10
2019-01-15T23:34:33.933Z,28.60
2019-01-15T23:37:15.257Z,28.50
2019-01-15T23:40:02.857Z,28.60
2019-01-15T23:42:55.658Z,28.50
2019-01-15T23:45:53.690Z,28.50
2019-01-15T23:48:49.543Z,28.40
2019-01-15T23:51:44.740Z,28.40
2019-01-15T23:54:42.898Z,28.50
2019-01-15T23:57:37.739Z,28.30
